sensor_id;sensor_type;location;lat;lon;timestamp;temperature;humidity
16736;DHT22;17990;49.548;9.730;2023-07-13T00:00:13;19.90;96.20
16736;DHT22;17990;49.548;9.730;2023-07-13T00:02:42;19.90;95.80
16736;DHT22;17990;49.548;9.730;2023-07-13T00:05:09;20.00;95.60
16736;DHT22;17990;49.548;9.730;2023-07-13T00:07:37;19.90;95.50
16736;DHT22;17990;49.548;9.730;2023-07-13T00:10:04;19.90;95.30
16736;DHT22;17990;49.548;9.730;2023-07-13T00:12:36;19.90;95.10
16736;DHT22;17990;49.548;9.730;2023-07-13T00:15:07;19.90;94.80
16736;DHT22;17990;49.548;9.730;2023-07-13T00:17:39;19.90;94.80
16736;DHT22;17990;49.548;9.730;2023-07-13T00:20:07;19.80;94.80
16736;DHT22;17990;49.548;9.730;2023-07-13T00:22:36;19.80;95.40
16736;DHT22;17990;49.548;9.730;2023-07-13T00:25:04;19.60;97.20
16736;DHT22;17990;49.548;9.730;2023-07-13T00:27:32;19.30;97.90
16736;DHT22;17990;49.548;9.730;2023-07-13T00:29:59;19.00;98.20
16736;DHT22;17990;49.548;9.730;2023-07-13T00:32:28;18.90;98.60
16736;DHT22;17990;49.548;9.730;2023-07-13T00:34:56;18.80;98.70
16736;DHT22;17990;49.548;9.730;2023-07-13T00:37:23;18.80;98.60
16736;DHT22;17990;49.548;9.730;2023-07-13T00:39:50;18.70;99.20
16736;DHT22;17990;49.548;9.730;2023-07-13T00:42:17;18.40;99.90
16736;DHT22;17990;49.548;9.730;2023-07-13T00:45:03;18.20;99.90
16736;DHT22;17990;49.548;9.730;2023-07-13T00:47:32;18.00;99.90
16736;DHT22;17990;49.548;9.730;2023-07-13T00:50:00;18.00;99.90
16736;DHT22;17990;49.548;9.730;2023-07-13T00:52:28;17.90;99.90
16736;DHT22;17990;49.548;9.730;2023-07-13T00:54:55;17.80;99.90
16736;DHT22;17990;49.548;9.730;2023-07-13T00:57:23;17.70;99.90
16736;DHT22;17990;49.548;9.730;2023-07-13T00:59:54;17.70;99.90
16736;DHT22;17990;49.548;9.730;2023-07-13T01:02:22;17.70;99.90
16736;DHT22;17990;49.548;9.730;2023-07-13T01:04:51;17.60;99.90
16736;DHT22;17990;49.548;9.730;2023-07-13T01:07:18;17.60;99.90
16736;DHT22;17990;49.548;9.730;2023-07-13T01:09:45;17.70;99.90
16736;DHT22;17990;49.548;9.730;2023-07-13T01:12:12;17.70;99.90
16736;DHT22;17990;49.548;9.730;2023-07-13T01:14:39;17.70;99.90
16736;DHT22;17990;49.548;9.730;2023-07-13T01:17:08;17.70;99.90
16736;DHT22;17990;49.548;9.730;2023-07-13T01:19:39;17.60;99.90
16736;DHT22;17990;49.548;9.730;2023-07-13T01:22:11;17.50;99.90
16736;DHT22;17990;49.548;9.730;2023-07-13T01:24:40;17.50;99.90
16736;DHT22;17990;49.548;9.730;2023-07-13T01:27:10;17.50;99.90
16736;DHT22;17990;49.548;9.730;2023-07-13T01:29:39;17.50;99.90
16736;DHT22;17990;49.548;9.730;2023-07-13T01:32:08;17.40;99.90
16736;DHT22;17990;49.548;9.730;2023-07-13T01:34:36;17.40;99.90
16736;DHT22;17990;49.548;9.730;2023-07-13T01:37:04;17.40;99.90
16736;DHT22;17990;49.548;9.730;2023-07-13T01:39:32;17.40;99.90
16736;DHT22;17990;49.548;9.730;2023-07-13T01:41:59;17.40;99.90
16736;DHT22;17990;49.548;9.730;2023-07-13T01:44:26;17.40;99.90
16736;DHT22;17990;49.548;9.730;2023-07-13T01:46:53;17.40;99.90
16736;DHT22;17990;49.548;9.730;2023-07-13T01:49:20;17.40;99.90
16736;DHT22;17990;49.548;9.730;2023-07-13T01:51:47;17.40;99.90
16736;DHT22;17990;49.548;9.730;2023-07-13T01:54:14;17.30;99.90
16736;DHT22;17990;49.548;9.730;2023-07-13T01:56:42;17.10;99.90
16736;DHT22;17990;49.548;9.730;2023-07-13T01:59:09;17.10;99.90
16736;DHT22;17990;49.548;9.730;2023-07-13T02:01:36;17.00;99.90
16736;DHT22;17990;49.548;9.730;2023-07-13T02:04:03;17.00;99.90
16736;DHT22;17990;49.548;9.730;2023-07-13T02:06:30;17.00;99.90
16736;DHT22;17990;49.548;9.730;2023-07-13T02:08:57;17.10;99.90
16736;DHT22;17990;49.548;9.730;2023-07-13T02:11:25;17.10;99.90
16736;DHT22;17990;49.548;9.730;2023-07-13T02:13:59;17.10;99.90
16736;DHT22;17990;49.548;9.730;2023-07-13T02:16:27;17.00;99.90
16736;DHT22;17990;49.548;9.730;2023-07-13T02:18:54;16.90;99.90
16736;DHT22;17990;49.548;9.730;2023-07-13T02:21:21;16.80;99.90
16736;DHT22;17990;49.548;9.730;2023-07-13T02:23:48;16.80;99.90
16736;DHT22;17990;49.548;9.730;2023-07-13T02:26:16;16.80;99.90
16736;DHT22;17990;49.548;9.730;2023-07-13T02:28:43;16.70;99.90
16736;DHT22;17990;49.548;9.730;2023-07-13T02:31:13;16.60;99.90
16736;DHT22;17990;49.548;9.730;2023-07-13T02:33:42;16.60;99.90
16736;DHT22;17990;49.548;9.730;2023-07-13T02:36:09;16.50;99.90
16736;DHT22;17990;49.548;9.730;2023-07-13T02:38:36;16.50;99.90
16736;DHT22;17990;49.548;9.730;2023-07-13T02:41:04;16.40;99.90
16736;DHT22;17990;49.548;9.730;2023-07-13T02:43:31;16.40;99.90
16736;DHT22;17990;49.548;9.730;2023-07-13T02:45:59;16.30;99.90
16736;DHT22;17990;49.548;9.730;2023-07-13T02:48:30;16.30;99.90
16736;DHT22;17990;49.548;9.730;2023-07-13T02:50:57;16.30;99.90
16736;DHT22;17990;49.548;9.730;2023-07-13T02:53:24;16.30;99.90
16736;DHT22;17990;49.548;9.730;2023-07-13T02:55:52;16.30;99.90
16736;DHT22;17990;49.548;9.730;2023-07-13T02:58:19;16.20;99.90
16736;DHT22;17990;49.548;9.730;2023-07-13T03:00:47;16.20;99.90
16736;DHT22;17990;49.548;9.730;2023-07-13T03:03:16;16.10;99.90
16736;DHT22;17990;49.548;9.730;2023-07-13T03:05:45;16.10;99.90
16736;DHT22;17990;49.548;9.730;2023-07-13T03:08:15;16.10;99.90
16736;DHT22;17990;49.548;9.730;2023-07-13T03:10:43;16.10;99.90
16736;DHT22;17990;49.548;9.730;2023-07-13T03:13:10;16.10;99.90
16736;DHT22;17990;49.548;9.730;2023-07-13T03:15:37;16.10;99.90
16736;DHT22;17990;49.548;9.730;2023-07-13T03:18:04;16.00;99.90
16736;DHT22;17990;49.548;9.730;2023-07-13T03:20:32;15.90;99.90
16736;DHT22;17990;49.548;9.730;2023-07-13T03:23:01;15.70;99.90
16736;DHT22;17990;49.548;9.730;2023-07-13T03:25:28;15.60;99.90
16736;DHT22;17990;49.548;9.730;2023-07-13T03:27:55;15.60;99.90
16736;DHT22;17990;49.548;9.730;2023-07-13T03:30:22;15.60;99.90
16736;DHT22;17990;49.548;9.730;2023-07-13T03:32:49;15.50;99.90
16736;DHT22;17990;49.548;9.730;2023-07-13T03:35:16;15.60;99.90
16736;DHT22;17990;49.548;9.730;2023-07-13T03:37:43;15.50;99.90
16736;DHT22;17990;49.548;9.730;2023-07-13T03:40:12;15.50;99.90
16736;DHT22;17990;49.548;9.730;2023-07-13T03:42:39;15.40;99.90
16736;DHT22;17990;49.548;9.730;2023-07-13T03:45:07;15.40;99.90
16736;DHT22;17990;49.548;9.730;2023-07-13T03:47:35;15.40;99.90
16736;DHT22;17990;49.548;9.730;2023-07-13T03:50:02;15.40;99.90
16736;DHT22;17990;49.548;9.730;2023-07-13T03:52:29;15.50;99.90
16736;DHT22;17990;49.548;9.730;2023-07-13T03:54:56;15.40;99.90
16736;DHT22;17990;49.548;9.730;2023-07-13T03:57:25;15.40;99.90
16736;DHT22;17990;49.548;9.730;2023-07-13T03:59:52;15.50;99.90
16736;DHT22;17990;49.548;9.730;2023-07-13T04:02:19;15.50;99.90
16736;DHT22;17990;49.548;9.730;2023-07-13T04:04:47;15.50;99.90
16736;DHT22;17990;49.548;9.730;2023-07-13T04:07:13;15.60;99.90
16736;DHT22;17990;49.548;9.730;2023-07-13T04:09:40;15.60;99.90
16736;DHT22;17990;49.548;9.730;2023-07-13T04:12:07;15.60;99.90
16736;DHT22;17990;49.548;9.730;2023-07-13T04:14:37;15.60;99.90
16736;DHT22;17990;49.548;9.730;2023-07-13T04:17:04;15.60;99.90
16736;DHT22;17990;49.548;9.730;2023-07-13T04:19:31;15.60;99.90
16736;DHT22;17990;49.548;9.730;2023-07-13T04:21:58;15.60;99.90
16736;DHT22;17990;49.548;9.730;2023-07-13T04:24:25;15.60;99.90
16736;DHT22;17990;49.548;9.730;2023-07-13T04:26:52;15.70;99.90
16736;DHT22;17990;49.548;9.730;2023-07-13T04:29:19;15.90;99.90
16736;DHT22;17990;49.548;9.730;2023-07-13T04:31:47;16.20;99.90
16736;DHT22;17990;49.548;9.730;2023-07-13T04:34:14;16.50;99.90
16736;DHT22;17990;49.548;9.730;2023-07-13T04:36:42;16.70;99.90
16736;DHT22;17990;49.548;9.730;2023-07-13T04:39:09;16.70;99.90
16736;DHT22;17990;49.548;9.730;2023-07-13T04:41:35;16.80;99.90
16736;DHT22;17990;49.548;9.730;2023-07-13T04:44:02;16.90;99.90
16736;DHT22;17990;49.548;9.730;2023-07-13T04:46:30;16.90;99.90
16736;DHT22;17990;49.548;9.730;2023-07-13T04:48:58;16.90;99.90
16736;DHT22;17990;49.548;9.730;2023-07-13T04:51:26;16.80;99.90
16736;DHT22;17990;49.548;9.730;2023-07-13T04:53:53;16.80;99.90
16736;DHT22;17990;49.548;9.730;2023-07-13T04:56:20;16.80;99.90
16736;DHT22;17990;49.548;9.730;2023-07-13T04:58:47;16.80;99.90
16736;DHT22;17990;49.548;9.730;2023-07-13T05:01:14;16.80;99.90
16736;DHT22;17990;49.548;9.730;2023-07-13T05:03:41;16.90;99.90
16736;DHT22;17990;49.548;9.730;2023-07-13T05:06:09;16.80;99.90
16736;DHT22;17990;49.548;9.730;2023-07-13T05:08:36;16.80;99.90
16736;DHT22;17990;49.548;9.730;2023-07-13T05:11:04;16.70;99.90
16736;DHT22;17990;49.548;9.730;2023-07-13T05:13:32;16.80;99.90
16736;DHT22;17990;49.548;9.730;2023-07-13T05:16:01;16.90;99.90
16736;DHT22;17990;49.548;9.730;2023-07-13T05:18:29;17.00;99.90
16736;DHT22;17990;49.548;9.730;2023-07-13T05:20:58;17.20;99.90
16736;DHT22;17990;49.548;9.730;2023-07-13T05:23:27;17.30;99.90
16736;DHT22;17990;49.548;9.730;2023-07-13T05:25:56;17.40;99.90
16736;DHT22;17990;49.548;9.730;2023-07-13T05:28:23;17.60;99.90
16736;DHT22;17990;49.548;9.730;2023-07-13T05:30:50;18.00;99.90
16736;DHT22;17990;49.548;9.730;2023-07-13T05:33:17;18.70;99.90
16736;DHT22;17990;49.548;9.730;2023-07-13T05:35:44;18.90;99.90
16736;DHT22;17990;49.548;9.730;2023-07-13T05:38:11;19.00;99.90
16736;DHT22;17990;49.548;9.730;2023-07-13T05:40:41;20.60;99.90
16736;DHT22;17990;49.548;9.730;2023-07-13T05:43:09;21.50;99.90
16736;DHT22;17990;49.548;9.730;2023-07-13T05:45:36;22.40;99.90
16736;DHT22;17990;49.548;9.730;2023-07-13T05:48:03;23.60;99.90
16736;DHT22;17990;49.548;9.730;2023-07-13T05:50:30;22.60;99.90
16736;DHT22;17990;49.548;9.730;2023-07-13T05:52:57;22.00;99.90
16736;DHT22;17990;49.548;9.730;2023-07-13T05:55:24;25.60;96.00
16736;DHT22;17990;49.548;9.730;2023-07-13T05:57:52;27.10;91.60
16736;DHT22;17990;49.548;9.730;2023-07-13T06:00:19;26.90;90.30
16736;DHT22;17990;49.548;9.730;2023-07-13T06:02:46;25.80;91.10
16736;DHT22;17990;49.548;9.730;2023-07-13T06:05:13;25.20;92.20
16736;DHT22;17990;49.548;9.730;2023-07-13T06:07:41;26.80;90.20
16736;DHT22;17990;49.548;9.730;2023-07-13T06:10:08;25.80;90.70
16736;DHT22;17990;49.548;9.730;2023-07-13T06:12:36;24.30;92.60
16736;DHT22;17990;49.548;9.730;2023-07-13T06:15:06;24.00;93.10
16736;DHT22;17990;49.548;9.730;2023-07-13T06:17:33;24.10;93.00
16736;DHT22;17990;49.548;9.730;2023-07-13T06:20:00;25.00;92.40
16736;DHT22;17990;49.548;9.730;2023-07-13T06:22:27;27.80;87.20
16736;DHT22;17990;49.548;9.730;2023-07-13T06:24:54;27.60;84.70
16736;DHT22;17990;49.548;9.730;2023-07-13T06:27:21;26.30;87.60
16736;DHT22;17990;49.548;9.730;2023-07-13T06:29:48;25.00;90.90
16736;DHT22;17990;49.548;9.730;2023-07-13T06:32:17;24.10;92.10
16736;DHT22;17990;49.548;9.730;2023-07-13T06:34:44;24.20;92.50
16736;DHT22;17990;49.548;9.730;2023-07-13T06:37:11;24.30;92.20
16736;DHT22;17990;49.548;9.730;2023-07-13T06:39:38;26.50;90.40
16736;DHT22;17990;49.548;9.730;2023-07-13T06:42:06;30.20;79.80
16736;DHT22;17990;49.548;9.730;2023-07-13T06:44:33;31.20;76.30
16736;DHT22;17990;49.548;9.730;2023-07-13T06:47:00;30.20;76.40
16736;DHT22;17990;49.548;9.730;2023-07-13T06:49:28;30.80;74.90
16736;DHT22;17990;49.548;9.730;2023-07-13T06:51:55;31.60;72.20
16736;DHT22;17990;49.548;9.730;2023-07-13T06:54:22;31.70;69.90
16736;DHT22;17990;49.548;9.730;2023-07-13T06:56:49;31.60;69.00
16736;DHT22;17990;49.548;9.730;2023-07-13T06:59:15;29.20;73.60
16736;DHT22;17990;49.548;9.730;2023-07-13T07:01:42;28.80;74.70
16736;DHT22;17990;49.548;9.730;2023-07-13T07:04:09;31.40;67.90
16736;DHT22;17990;49.548;9.730;2023-07-13T07:06:37;33.30;63.00
16736;DHT22;17990;49.548;9.730;2023-07-13T07:09:04;33.00;63.70
16736;DHT22;17990;49.548;9.730;2023-07-13T07:11:31;32.60;63.90
16736;DHT22;17990;49.548;9.730;2023-07-13T07:13:58;35.00;59.20
16736;DHT22;17990;49.548;9.730;2023-07-13T07:16:25;37.00;54.50
16736;DHT22;17990;49.548;9.730;2023-07-13T07:18:52;37.70;52.20
16736;DHT22;17990;49.548;9.730;2023-07-13T07:21:19;37.20;51.20
16736;DHT22;17990;49.548;9.730;2023-07-13T07:23:49;37.00;50.90
16736;DHT22;17990;49.548;9.730;2023-07-13T07:26:18;37.80;49.10
16736;DHT22;17990;49.548;9.730;2023-07-13T07:28:45;38.10;47.50
16736;DHT22;17990;49.548;9.730;2023-07-13T07:31:12;38.50;47.20
16736;DHT22;17990;49.548;9.730;2023-07-13T07:33:39;38.60;46.30
16736;DHT22;17990;49.548;9.730;2023-07-13T07:36:06;38.60;45.80
16736;DHT22;17990;49.548;9.730;2023-07-13T07:38:33;39.40;44.90
16736;DHT22;17990;49.548;9.730;2023-07-13T07:41:03;39.50;44.50
16736;DHT22;17990;49.548;9.730;2023-07-13T07:43:30;39.20;44.50
16736;DHT22;17990;49.548;9.730;2023-07-13T07:45:57;38.40;45.10
16736;DHT22;17990;49.548;9.730;2023-07-13T07:48:24;37.80;45.70
16736;DHT22;17990;49.548;9.730;2023-07-13T07:50:51;37.70;45.90
16736;DHT22;17990;49.548;9.730;2023-07-13T07:53:18;37.90;44.60
16736;DHT22;17990;49.548;9.730;2023-07-13T07:55:45;38.60;42.30
16736;DHT22;17990;49.548;9.730;2023-07-13T07:58:14;38.70;42.40
16736;DHT22;17990;49.548;9.730;2023-07-13T08:00:41;38.70;42.30
16736;DHT22;17990;49.548;9.730;2023-07-13T08:03:08;39.10;41.40
16736;DHT22;17990;49.548;9.730;2023-07-13T08:05:36;38.90;41.80
16736;DHT22;17990;49.548;9.730;2023-07-13T08:08:03;38.00;42.60
16736;DHT22;17990;49.548;9.730;2023-07-13T08:10:30;37.90;43.60
16736;DHT22;17990;49.548;9.730;2023-07-13T08:12:57;37.00;42.90
16736;DHT22;17990;49.548;9.730;2023-07-13T08:15:25;36.00;45.10
16736;DHT22;17990;49.548;9.730;2023-07-13T08:17:52;36.10;45.10
16736;DHT22;17990;49.548;9.730;2023-07-13T08:20:19;36.90;44.40
16736;DHT22;17990;49.548;9.730;2023-07-13T08:22:46;36.70;44.40
16736;DHT22;17990;49.548;9.730;2023-07-13T08:25:12;36.60;44.00
16736;DHT22;17990;49.548;9.730;2023-07-13T08:27:39;36.10;44.10
16736;DHT22;17990;49.548;9.730;2023-07-13T08:30:07;36.00;44.30
16736;DHT22;17990;49.548;9.730;2023-07-13T08:32:36;35.70;44.00
16736;DHT22;17990;49.548;9.730;2023-07-13T08:35:03;33.80;46.70
16736;DHT22;17990;49.548;9.730;2023-07-13T08:37:31;33.10;47.50
16736;DHT22;17990;49.548;9.730;2023-07-13T08:39:58;30.90;51.40
16736;DHT22;17990;49.548;9.730;2023-07-13T08:42:32;30.40;52.30
16736;DHT22;17990;49.548;9.730;2023-07-13T08:45:07;30.70;51.20
16736;DHT22;17990;49.548;9.730;2023-07-13T08:47:46;30.90;51.30
16736;DHT22;17990;49.548;9.730;2023-07-13T08:50:18;31.20;51.10
16736;DHT22;17990;49.548;9.730;2023-07-13T08:52:46;32.10;50.60
16736;DHT22;17990;49.548;9.730;2023-07-13T08:55:16;31.70;49.80
16736;DHT22;17990;49.548;9.730;2023-07-13T08:57:48;30.30;52.70
16736;DHT22;17990;49.548;9.730;2023-07-13T09:00:18;29.80;54.00
16736;DHT22;17990;49.548;9.730;2023-07-13T09:02:54;29.70;53.70
16736;DHT22;17990;49.548;9.730;2023-07-13T09:05:28;29.30;53.70
16736;DHT22;17990;49.548;9.730;2023-07-13T09:08:14;28.90;54.00
16736;DHT22;17990;49.548;9.730;2023-07-13T09:10:57;28.20;56.10
16736;DHT22;17990;49.548;9.730;2023-07-13T09:13:32;27.90;56.40
16736;DHT22;17990;49.548;9.730;2023-07-13T09:16:04;27.50;56.80
16736;DHT22;17990;49.548;9.730;2023-07-13T09:18:36;27.70;56.90
16736;DHT22;17990;49.548;9.730;2023-07-13T09:21:09;29.20;55.70
16736;DHT22;17990;49.548;9.730;2023-07-13T09:23:38;30.40;54.00
16736;DHT22;17990;49.548;9.730;2023-07-13T09:26:11;30.20;52.40
16736;DHT22;17990;49.548;9.730;2023-07-13T09:28:42;29.40;53.50
16736;DHT22;17990;49.548;9.730;2023-07-13T09:31:13;28.70;54.00
16736;DHT22;17990;49.548;9.730;2023-07-13T09:33:44;28.30;55.10
16736;DHT22;17990;49.548;9.730;2023-07-13T09:36:19;28.10;55.80
16736;DHT22;17990;49.548;9.730;2023-07-13T09:38:49;27.80;55.60
16736;DHT22;17990;49.548;9.730;2023-07-13T09:41:26;27.90;55.50
16736;DHT22;17990;49.548;9.730;2023-07-13T09:44:08;27.80;55.50
16736;DHT22;17990;49.548;9.730;2023-07-13T09:46:37;28.10;56.00
16736;DHT22;17990;49.548;9.730;2023-07-13T09:49:09;28.30;55.40
16736;DHT22;17990;49.548;9.730;2023-07-13T09:51:37;28.40;55.60
16736;DHT22;17990;49.548;9.730;2023-07-13T09:54:04;28.70;55.50
16736;DHT22;17990;49.548;9.730;2023-07-13T09:56:31;28.70;55.00
16736;DHT22;17990;49.548;9.730;2023-07-13T09:58:58;28.60;54.90
16736;DHT22;17990;49.548;9.730;2023-07-13T10:01:34;28.40;55.10
16736;DHT22;17990;49.548;9.730;2023-07-13T10:04:12;28.10;55.60
16736;DHT22;17990;49.548;9.730;2023-07-13T10:06:40;27.90;56.30
16736;DHT22;17990;49.548;9.730;2023-07-13T10:09:08;28.20;56.90
16736;DHT22;17990;49.548;9.730;2023-07-13T10:11:37;28.30;56.50
16736;DHT22;17990;49.548;9.730;2023-07-13T10:14:11;28.30;57.10
16736;DHT22;17990;49.548;9.730;2023-07-13T10:16:41;28.30;57.10
16736;DHT22;17990;49.548;9.730;2023-07-13T10:19:15;28.10;56.80
16736;DHT22;17990;49.548;9.730;2023-07-13T10:21:50;28.00;56.80
16736;DHT22;17990;49.548;9.730;2023-07-13T10:24:21;28.00;56.70
16736;DHT22;17990;49.548;9.730;2023-07-13T10:26:54;28.00;56.60
16736;DHT22;17990;49.548;9.730;2023-07-13T10:29:26;28.10;56.50
16736;DHT22;17990;49.548;9.730;2023-07-13T10:31:54;28.30;56.60
16736;DHT22;17990;49.548;9.730;2023-07-13T10:34:24;28.80;57.10
16736;DHT22;17990;49.548;9.730;2023-07-13T10:36:51;29.00;55.20
16736;DHT22;17990;49.548;9.730;2023-07-13T10:39:22;28.90;55.20
16736;DHT22;17990;49.548;9.730;2023-07-13T10:41:55;28.70;55.00
16736;DHT22;17990;49.548;9.730;2023-07-13T10:44:28;28.70;54.80
16736;DHT22;17990;49.548;9.730;2023-07-13T10:46:59;28.40;55.10
16736;DHT22;17990;49.548;9.730;2023-07-13T10:49:29;28.10;56.20
16736;DHT22;17990;49.548;9.730;2023-07-13T10:51:58;27.80;56.30
16736;DHT22;17990;49.548;9.730;2023-07-13T10:54:27;27.80;56.80
16736;DHT22;17990;49.548;9.730;2023-07-13T10:57:15;27.80;56.90
16736;DHT22;17990;49.548;9.730;2023-07-13T10:59:47;27.90;56.20
16736;DHT22;17990;49.548;9.730;2023-07-13T11:02:23;28.10;56.20
16736;DHT22;17990;49.548;9.730;2023-07-13T11:04:55;28.10;56.80
16736;DHT22;17990;49.548;9.730;2023-07-13T11:07:25;28.60;55.70
16736;DHT22;17990;49.548;9.730;2023-07-13T11:09:54;28.80;55.10
16736;DHT22;17990;49.548;9.730;2023-07-13T11:12:50;29.00;55.00
16736;DHT22;17990;49.548;9.730;2023-07-13T11:15:32;28.60;55.40
16736;DHT22;17990;49.548;9.730;2023-07-13T11:18:20;28.30;55.80
16736;DHT22;17990;49.548;9.730;2023-07-13T11:20:52;28.20;56.30
16736;DHT22;17990;49.548;9.730;2023-07-13T11:23:28;28.50;56.10
16736;DHT22;17990;49.548;9.730;2023-07-13T11:25:56;28.70;55.70
16736;DHT22;17990;49.548;9.730;2023-07-13T11:28:26;28.70;55.40
16736;DHT22;17990;49.548;9.730;2023-07-13T11:31:14;28.30;56.30
16736;DHT22;17990;49.548;9.730;2023-07-13T11:33:52;28.10;56.00
16736;DHT22;17990;49.548;9.730;2023-07-13T11:36:30;27.90;57.20
16736;DHT22;17990;49.548;9.730;2023-07-13T11:39:02;28.30;57.00
16736;DHT22;17990;49.548;9.730;2023-07-13T11:41:35;28.60;56.70
16736;DHT22;17990;49.548;9.730;2023-07-13T11:44:12;28.90;55.90
16736;DHT22;17990;49.548;9.730;2023-07-13T11:46:45;29.30;55.10
16736;DHT22;17990;49.548;9.730;2023-07-13T11:49:16;29.50;54.80
16736;DHT22;17990;49.548;9.730;2023-07-13T11:51:45;29.50;54.40
16736;DHT22;17990;49.548;9.730;2023-07-13T11:54:26;29.40;54.60
16736;DHT22;17990;49.548;9.730;2023-07-13T11:56:56;29.40;54.50
16736;DHT22;17990;49.548;9.730;2023-07-13T11:59:26;29.20;54.30
16736;DHT22;17990;49.548;9.730;2023-07-13T12:01:54;29.50;54.30
16736;DHT22;17990;49.548;9.730;2023-07-13T12:04:24;29.40;54.50
16736;DHT22;17990;49.548;9.730;2023-07-13T12:06:57;29.40;54.60
16736;DHT22;17990;49.548;9.730;2023-07-13T12:09:27;29.30;53.60
16736;DHT22;17990;49.548;9.730;2023-07-13T12:11:57;29.50;53.60
16736;DHT22;17990;49.548;9.730;2023-07-13T12:14:25;29.50;53.80
16736;DHT22;17990;49.548;9.730;2023-07-13T12:16:54;29.80;53.80
16736;DHT22;17990;49.548;9.730;2023-07-13T12:19:23;29.50;53.70
16736;DHT22;17990;49.548;9.730;2023-07-13T12:21:54;29.20;53.40
16736;DHT22;17990;49.548;9.730;2023-07-13T12:24:24;29.10;54.60
16736;DHT22;17990;49.548;9.730;2023-07-13T12:26:53;29.00;54.40
16736;DHT22;17990;49.548;9.730;2023-07-13T12:29:21;28.90;55.10
16736;DHT22;17990;49.548;9.730;2023-07-13T12:31:50;29.10;55.30
16736;DHT22;17990;49.548;9.730;2023-07-13T12:34:19;29.20;55.10
16736;DHT22;17990;49.548;9.730;2023-07-13T12:36:51;29.30;55.10
16736;DHT22;17990;49.548;9.730;2023-07-13T12:39:23;29.00;55.20
16736;DHT22;17990;49.548;9.730;2023-07-13T12:41:52;28.70;56.20
16736;DHT22;17990;49.548;9.730;2023-07-13T12:44:25;28.40;57.20
16736;DHT22;17990;49.548;9.730;2023-07-13T12:46:56;28.60;57.50
16736;DHT22;17990;49.548;9.730;2023-07-13T12:49:28;28.80;57.00
16736;DHT22;17990;49.548;9.730;2023-07-13T12:51:59;28.90;57.30
16736;DHT22;17990;49.548;9.730;2023-07-13T12:54:30;29.00;57.20
16736;DHT22;17990;49.548;9.730;2023-07-13T12:56:59;28.80;57.30
16736;DHT22;17990;49.548;9.730;2023-07-13T12:59:31;28.90;57.00
16736;DHT22;17990;49.548;9.730;2023-07-13T13:02:02;28.70;56.80
16736;DHT22;17990;49.548;9.730;2023-07-13T13:04:31;28.80;57.30
16736;DHT22;17990;49.548;9.730;2023-07-13T13:07:03;28.70;56.70
16736;DHT22;17990;49.548;9.730;2023-07-13T13:09:33;28.70;57.10
16736;DHT22;17990;49.548;9.730;2023-07-13T13:12:00;28.60;57.00
16736;DHT22;17990;49.548;9.730;2023-07-13T13:14:27;28.60;57.10
16736;DHT22;17990;49.548;9.730;2023-07-13T13:16:54;28.70;57.60
16736;DHT22;17990;49.548;9.730;2023-07-13T13:19:23;29.00;57.00
16736;DHT22;17990;49.548;9.730;2023-07-13T13:21:54;29.30;56.60
16736;DHT22;17990;49.548;9.730;2023-07-13T13:24:23;29.40;56.50
16736;DHT22;17990;49.548;9.730;2023-07-13T13:26:53;29.40;56.60
16736;DHT22;17990;49.548;9.730;2023-07-13T13:29:24;29.40;56.40
16736;DHT22;17990;49.548;9.730;2023-07-13T13:31:52;29.60;56.70
16736;DHT22;17990;49.548;9.730;2023-07-13T13:34:20;29.90;55.90
16736;DHT22;17990;49.548;9.730;2023-07-13T13:36:49;30.10;54.60
16736;DHT22;17990;49.548;9.730;2023-07-13T13:39:22;30.20;54.90
16736;DHT22;17990;49.548;9.730;2023-07-13T13:41:50;30.00;55.40
16736;DHT22;17990;49.548;9.730;2023-07-13T13:44:20;29.60;54.90
16736;DHT22;17990;49.548;9.730;2023-07-13T13:46:51;29.20;55.80
16736;DHT22;17990;49.548;9.730;2023-07-13T13:49:22;29.00;56.10
16736;DHT22;17990;49.548;9.730;2023-07-13T13:51:50;29.00;55.50
16736;DHT22;17990;49.548;9.730;2023-07-13T13:54:18;29.00;56.40
16736;DHT22;17990;49.548;9.730;2023-07-13T13:56:47;28.90;56.60
16736;DHT22;17990;49.548;9.730;2023-07-13T13:59:17;28.90;56.50
16736;DHT22;17990;49.548;9.730;2023-07-13T14:01:46;28.90;56.50
16736;DHT22;17990;49.548;9.730;2023-07-13T14:04:15;28.90;55.70
16736;DHT22;17990;49.548;9.730;2023-07-13T14:06:44;28.80;56.30
16736;DHT22;17990;49.548;9.730;2023-07-13T14:09:16;28.80;56.90
16736;DHT22;17990;49.548;9.730;2023-07-13T14:11:45;29.00;56.80
16736;DHT22;17990;49.548;9.730;2023-07-13T14:14:19;29.10;55.70
16736;DHT22;17990;49.548;9.730;2023-07-13T14:16:49;29.40;55.10
16736;DHT22;17990;49.548;9.730;2023-07-13T14:19:19;29.40;55.20
16736;DHT22;17990;49.548;9.730;2023-07-13T14:21:46;29.40;55.00
16736;DHT22;17990;49.548;9.730;2023-07-13T14:24:15;29.10;55.30
16736;DHT22;17990;49.548;9.730;2023-07-13T14:26:42;29.00;55.50
16736;DHT22;17990;49.548;9.730;2023-07-13T14:29:13;29.00;55.40
16736;DHT22;17990;49.548;9.730;2023-07-13T14:31:43;29.10;55.90
16736;DHT22;17990;49.548;9.730;2023-07-13T14:34:11;29.10;55.90
16736;DHT22;17990;49.548;9.730;2023-07-13T14:36:41;29.00;55.30
16736;DHT22;17990;49.548;9.730;2023-07-13T14:39:12;29.00;54.40
16736;DHT22;17990;49.548;9.730;2023-07-13T14:41:42;29.00;55.00
16736;DHT22;17990;49.548;9.730;2023-07-13T14:44:11;29.00;54.40
16736;DHT22;17990;49.548;9.730;2023-07-13T14:46:39;29.00;53.90
16736;DHT22;17990;49.548;9.730;2023-07-13T14:49:13;28.90;53.70
16736;DHT22;17990;49.548;9.730;2023-07-13T14:51:43;28.90;54.20
16736;DHT22;17990;49.548;9.730;2023-07-13T14:54:10;29.00;53.80
16736;DHT22;17990;49.548;9.730;2023-07-13T14:56:37;29.20;54.10
16736;DHT22;17990;49.548;9.730;2023-07-13T14:59:04;29.10;53.30
16736;DHT22;17990;49.548;9.730;2023-07-13T15:01:33;28.80;53.80
16736;DHT22;17990;49.548;9.730;2023-07-13T15:04:01;28.60;54.30
16736;DHT22;17990;49.548;9.730;2023-07-13T15:06:30;28.80;54.10
16736;DHT22;17990;49.548;9.730;2023-07-13T15:08:58;29.00;54.40
16736;DHT22;17990;49.548;9.730;2023-07-13T15:11:24;29.10;54.20
16736;DHT22;17990;49.548;9.730;2023-07-13T15:13:51;29.10;54.40
16736;DHT22;17990;49.548;9.730;2023-07-13T15:16:22;28.90;53.70
16736;DHT22;17990;49.548;9.730;2023-07-13T15:18:50;28.60;54.10
16736;DHT22;17990;49.548;9.730;2023-07-13T15:21:20;28.40;54.40
16736;DHT22;17990;49.548;9.730;2023-07-13T15:23:50;28.30;54.70
16736;DHT22;17990;49.548;9.730;2023-07-13T15:26:18;28.40;55.50
16736;DHT22;17990;49.548;9.730;2023-07-13T15:28:46;28.50;54.10
16736;DHT22;17990;49.548;9.730;2023-07-13T15:31:20;28.50;54.10
16736;DHT22;17990;49.548;9.730;2023-07-13T15:33:49;28.50;54.10
16736;DHT22;17990;49.548;9.730;2023-07-13T15:36:17;28.60;54.10
16736;DHT22;17990;49.548;9.730;2023-07-13T15:38:46;28.60;53.80
16736;DHT22;17990;49.548;9.730;2023-07-13T15:41:18;28.90;53.00